createdAt,value
2018-02-10T00:00:08.652Z,-2.01
2018-02-10T00:02:39.671Z,-2.01
2018-02-10T00:05:10.701Z,-2.04
2018-02-10T00:07:42.237Z,-2.08
2018-02-10T00:10:12.903Z,-2.12
2018-02-10T00:12:44.010Z,-2.16
2018-02-10T00:15:15.692Z,-2.17
2018-02-10T00:17:47.904Z,-2.23
2018-02-10T00:20:19.550Z,-2.26
2018-02-10T00:22:49.259Z,-2.28
2018-02-10T00:25:19.726Z,-2.31
2018-02-10T00:27:50.402Z,-2.33
2018-02-10T00:30:20.223Z,-2.34
2018-02-10T00:32:51.783Z,-2.36
2018-02-10T00:35:22.339Z,-2.38
2018-02-10T00:37:53.807Z,-2.43
2018-02-10T00:40:23.495Z,-2.45
2018-02-10T00:42:54.344Z,-2.45
2018-02-10T00:45:25.119Z,-2.48
2018-02-10T00:47:57.215Z,-2.50
2018-02-10T00:50:27.716Z,-2.53
2018-02-10T00:53:00.284Z,-2.57
2018-02-10T00:55:30.040Z,-2.56
2018-02-10T00:58:03.083Z,-2.58
2018-02-10T01:00:32.835Z,-2.61
2018-02-10T01:03:01.965Z,-2.63
2018-02-10T01:05:33.227Z,-2.65
2018-02-10T01:08:09.178Z,-2.68
2018-02-10T01:10:38.537Z,-2.70
2018-02-10T01:13:09.798Z,-2.72
2018-02-10T01:15:39.830Z,-2.76
2018-02-10T01:18:10.052Z,-2.76
2018-02-10T01:20:41.800Z,-2.79
2018-02-10T01:23:11.343Z,-2.82
2018-02-10T01:25:43.031Z,-2.84
2018-02-10T01:28:14.003Z,-2.87
2018-02-10T01:30:44.738Z,-2.90
2018-02-10T01:33:15.945Z,-2.93
2018-02-10T01:35:46.967Z,-2.97
2018-02-10T01:38:19.407Z,-2.99
2018-02-10T01:40:48.843Z,-3.01
2018-02-10T01:43:21.609Z,-3.05
2018-02-10T01:45:50.932Z,-3.05
2018-02-10T01:48:20.135Z,-3.09
2018-02-10T01:50:51.456Z,-3.10
2018-02-10T01:53:21.207Z,-3.14
2018-02-10T01:55:52.310Z,-3.18
2018-02-10T01:58:24.608Z,-3.22
2018-02-10T02:00:53.927Z,-3.23
2018-02-10T02:03:23.423Z,-3.26
2018-02-10T02:05:54.445Z,-3.27
2018-02-10T02:08:23.839Z,-3.30
2018-02-10T02:10:54.920Z,-3.32
2018-02-10T02:13:25.832Z,-3.33
2018-02-10T02:15:57.824Z,-3.35
2018-02-10T02:18:33.162Z,-3.39
2018-02-10T02:21:02.466Z,-3.40
2018-02-10T02:23:31.615Z,-3.41
2018-02-10T02:26:01.398Z,-3.45
2018-02-10T02:28:36.689Z,-3.47
2018-02-10T02:31:06.580Z,-3.49
2018-02-10T02:33:35.840Z,-3.51
2018-02-10T02:36:05.670Z,-3.50
2018-02-10T02:38:36.698Z,-3.53
2018-02-10T02:41:08.899Z,-3.54
2018-02-10T02:43:38.445Z,-3.55
2018-02-10T02:46:09.542Z,-3.57
2018-02-10T02:48:38.716Z,-3.60
2018-02-10T02:51:10.233Z,-3.60
2018-02-10T02:53:40.786Z,-3.61
2018-02-10T02:56:13.731Z,-3.62
2018-02-10T02:58:44.295Z,-3.63
2018-02-10T03:01:14.243Z,-3.64
2018-02-10T03:03:45.469Z,-3.66
2018-02-10T03:06:17.070Z,-3.68
2018-02-10T03:08:49.414Z,-3.70
2018-02-10T03:11:19.395Z,-3.73
2018-02-10T03:13:55.899Z,-3.73
2018-02-10T03:16:25.191Z,-3.77
2018-02-10T03:18:54.553Z,-3.78
2018-02-10T03:21:24.615Z,-3.80
2018-02-10T03:23:56.200Z,-3.82
2018-02-10T03:26:26.159Z,-3.84
2018-02-10T03:28:55.342Z,-3.86
2018-02-10T03:31:24.820Z,-3.88
2018-02-10T03:33:54.433Z,-3.90
2018-02-10T03:36:25.818Z,-3.91
2018-02-10T03:38:57.292Z,-3.92
2018-02-10T03:41:27.493Z,-3.95
2018-02-10T03:43:58.376Z,-3.97
2018-02-10T03:46:29.719Z,-3.97
2018-02-10T03:49:00.386Z,-3.98
2018-02-10T03:51:36.651Z,-4.00
2018-02-10T03:54:05.926Z,-4.02
2018-02-10T03:56:35.405Z,-4.04
2018-02-10T03:59:04.731Z,-4.08
2018-02-10T04:01:34.038Z,-4.09
2018-02-10T04:04:04.976Z,-4.11
2018-02-10T04:06:35.708Z,-4.09
2018-02-10T04:09:07.693Z,-4.07
2018-02-10T04:11:36.799Z,-4.07
2018-02-10T04:14:08.682Z,-4.03
2018-02-10T04:16:40.843Z,-4.02
2018-02-10T04:19:10.392Z,-4.01
2018-02-10T04:21:39.629Z,-4.00
2018-02-10T04:24:13.099Z,-4.06
2018-02-10T04:26:43.207Z,-3.98
2018-02-10T04:29:13.507Z,-3.98
2018-02-10T04:31:45.154Z,-4.00
2018-02-10T04:34:15.087Z,-3.98
2018-02-10T04:36:44.539Z,-3.98
2018-02-10T04:39:14.246Z,-3.99
2018-02-10T04:41:44.549Z,-3.99
2018-02-10T04:44:17.547Z,-3.98
2018-02-10T04:46:47.453Z,-3.96
2018-02-10T04:49:18.337Z,-3.98
2018-02-10T04:51:49.143Z,-3.99
2018-02-10T04:54:19.639Z,-3.97
2018-02-10T04:56:50.139Z,-4.00
2018-02-10T04:59:22.775Z,-3.97
2018-02-10T05:01:54.083Z,-3.96
2018-02-10T05:04:31.397Z,-3.96
2018-02-10T05:07:01.350Z,-3.94
2018-02-10T05:09:31.481Z,-3.94
2018-02-10T05:12:00.659Z,-3.94
2018-02-10T05:14:30.267Z,-3.92
2018-02-10T05:17:01.624Z,-3.90
2018-02-10T05:19:30.823Z,-3.89
2018-02-10T05:22:01.811Z,-3.90
2018-02-10T05:24:31.496Z,-3.88
2018-02-10T05:27:01.391Z,-3.87
2018-02-10T05:29:31.967Z,-3.84
2018-02-10T05:32:03.512Z,-3.83
2018-02-10T05:34:33.115Z,-3.84
2018-02-10T05:37:04.436Z,-3.83
2018-02-10T05:39:38.145Z,-3.82
2018-02-10T05:42:07.674Z,-3.83
2018-02-10T05:44:37.011Z,-3.79
2018-02-10T05:47:10.015Z,-3.79
2018-02-10T05:49:39.294Z,-3.81
2018-02-10T05:52:08.434Z,-3.78
2018-02-10T05:54:38.545Z,-3.77
2018-02-10T05:57:09.384Z,-3.76
2018-02-10T05:59:40.175Z,-3.77
2018-02-10T06:02:12.685Z,-3.76
2018-02-10T06:04:42.312Z,-3.75
2018-02-10T06:07:12.410Z,-3.74
2018-02-10T06:09:42.514Z,-3.74
2018-02-10T06:12:13.005Z,-3.72
2018-02-10T06:14:44.383Z,-3.72
2018-02-10T06:17:17.533Z,-3.71
2018-02-10T06:19:48.060Z,-3.70
2018-02-10T06:22:21.400Z,-3.69
2018-02-10T06:24:52.956Z,-3.68
2018-02-10T06:27:23.206Z,-3.68
2018-02-10T06:29:52.460Z,-3.66
2018-02-10T06:32:21.404Z,-3.64
2018-02-10T06:34:57.084Z,-3.63
2018-02-10T06:37:30.658Z,-3.60
2018-02-10T06:39:59.975Z,-3.61
2018-02-10T06:42:29.827Z,-3.61
2018-02-10T06:44:59.039Z,-3.58
2018-02-10T06:47:28.474Z,-3.55
2018-02-10T06:49:57.827Z,-3.56
2018-02-10T06:52:28.400Z,-3.53
2018-02-10T06:54:58.267Z,-3.55
2018-02-10T06:57:27.928Z,-3.50
2018-02-10T06:59:58.887Z,-3.47
2018-02-10T07:02:29.930Z,-3.46
2018-02-10T07:05:00.691Z,-3.50
2018-02-10T07:07:33.076Z,-3.50
2018-02-10T07:10:03.845Z,-3.48
2018-02-10T07:12:36.553Z,-3.47
2018-02-10T07:15:07.984Z,-3.40
2018-02-10T07:17:38.936Z,-3.36
2018-02-10T07:20:09.670Z,-3.32
2018-02-10T07:22:39.544Z,-3.26
2018-02-10T07:25:09.300Z,-3.23
2018-02-10T07:27:39.926Z,-3.25
2018-02-10T07:30:10.814Z,-3.25
2018-02-10T07:32:41.729Z,-3.22
2018-02-10T07:35:14.468Z,-3.18
2018-02-10T07:37:44.738Z,-3.18
2018-02-10T07:40:14.373Z,-3.13
2018-02-10T07:42:44.209Z,-3.06
2018-02-10T07:45:15.588Z,-3.03
2018-02-10T07:47:48.331Z,-3.00
2018-02-10T07:50:19.445Z,-2.95
2018-02-10T07:52:48.717Z,-2.90
2018-02-10T07:55:19.595Z,-2.88
2018-02-10T07:57:52.079Z,-2.84
2018-02-10T08:00:21.305Z,-2.78
2018-02-10T08:02:51.668Z,-2.74
2018-02-10T08:05:22.360Z,-2.67
2018-02-10T08:07:53.772Z,-2.64
2018-02-10T08:10:24.196Z,-2.62
2018-02-10T08:12:54.132Z,-2.56
2018-02-10T08:15:24.911Z,-2.50
2018-02-10T08:17:56.302Z,-2.50
2018-02-10T08:20:31.905Z,-2.45
2018-02-10T08:23:01.181Z,-2.38
2018-02-10T08:25:30.710Z,-2.33
2018-02-10T08:28:00.033Z,-2.28
2018-02-10T08:30:31.519Z,-2.23
2018-02-10T08:33:01.159Z,-2.17
2018-02-10T08:35:32.964Z,-2.12
2018-02-10T08:38:04.177Z,-2.05
2018-02-10T08:40:34.790Z,-2.04
2018-02-10T08:43:07.459Z,-1.95
2018-02-10T08:45:36.648Z,-1.89
2018-02-10T08:48:08.145Z,-1.73
2018-02-10T08:50:37.690Z,-1.59
2018-02-10T08:53:08.732Z,-1.47
2018-02-10T08:55:39.716Z,-1.40
2018-02-10T08:58:11.541Z,-1.28
2018-02-10T09:00:42.953Z,-1.21
2018-02-10T09:03:12.776Z,-1.13
2018-02-10T09:05:43.415Z,-1.12
2018-02-10T09:08:14.112Z,-1.00
2018-02-10T09:10:44.803Z,-0.90
2018-02-10T09:13:18.983Z,-0.81
2018-02-10T09:15:47.915Z,-0.81
2018-02-10T09:18:18.463Z,-0.77
2018-02-10T09:20:50.239Z,-0.84
2018-02-10T09:23:20.503Z,-0.83
2018-02-10T09:25:50.101Z,-0.81
2018-02-10T09:28:20.653Z,-0.78
2018-02-10T09:30:51.230Z,-0.74
2018-02-10T09:33:21.884Z,-0.68
2018-02-10T09:35:52.688Z,-0.60
2018-02-10T09:38:23.072Z,-0.54
2018-02-10T09:40:54.617Z,-0.62
2018-02-10T09:43:30.256Z,-0.65
2018-02-10T09:46:01.851Z,-0.65
2018-02-10T09:48:31.114Z,-0.56
2018-02-10T09:51:00.234Z,-0.51
2018-02-10T09:53:40.488Z,-0.40
2018-02-10T09:56:09.919Z,-0.30
2018-02-10T09:58:39.349Z,-0.26
2018-02-10T10:01:08.707Z,-0.19
2018-02-10T10:03:38.697Z,-0.16
2018-02-10T10:06:07.927Z,-0.11
2018-02-10T10:08:37.174Z,-0.05
2018-02-10T10:11:07.413Z,-0.02
2018-02-10T10:13:37.981Z,0.07
2018-02-10T10:16:07.471Z,0.13
2018-02-10T10:18:39.818Z,0.18
2018-02-10T10:21:11.284Z,0.29
2018-02-10T10:23:41.591Z,0.41
2018-02-10T10:26:11.035Z,0.55
2018-02-10T10:28:41.669Z,0.65
2018-02-10T10:31:12.603Z,0.73
2018-02-10T10:33:42.061Z,0.77
2018-02-10T10:36:12.035Z,0.87
2018-02-10T10:38:42.516Z,1.00
2018-02-10T10:41:13.591Z,1.01
2018-02-10T10:43:45.140Z,1.18
2018-02-10T10:46:16.105Z,1.33
2018-02-10T10:48:46.938Z,1.47
2018-02-10T10:51:17.504Z,1.58
2018-02-10T10:53:48.049Z,1.67
2018-02-10T10:56:18.926Z,1.86
2018-02-10T10:58:49.467Z,2.02
2018-02-10T11:01:21.041Z,2.16
2018-02-10T11:03:52.573Z,2.26
2018-02-10T11:06:21.780Z,2.40
2018-02-10T11:08:53.116Z,2.58
2018-02-10T11:11:22.517Z,2.73
2018-02-10T11:13:53.208Z,2.87
2018-02-10T11:16:24.117Z,3.01
2018-02-10T11:18:54.803Z,3.14
2018-02-10T11:21:25.700Z,3.28
2018-02-10T11:23:56.730Z,3.38
2018-02-10T11:26:29.019Z,3.56
2018-02-10T11:28:59.453Z,3.73
2018-02-10T11:31:32.483Z,3.90
2018-02-10T11:34:02.548Z,4.02
2018-02-10T11:36:31.774Z,4.10
2018-02-10T11:39:02.638Z,4.24
2018-02-10T11:41:34.377Z,4.34
2018-02-10T11:44:04.667Z,4.43
2018-02-10T11:46:34.313Z,4.55
2018-02-10T11:49:04.844Z,4.67
2018-02-10T11:51:36.251Z,4.69
2018-02-10T11:54:07.112Z,4.84
2018-02-10T11:56:37.862Z,4.93
2018-02-10T11:59:08.809Z,5.07
2018-02-10T12:01:38.308Z,5.09
2018-02-10T12:04:10.022Z,5.14
2018-02-10T12:06:41.821Z,5.06
2018-02-10T12:09:12.709Z,5.16
2018-02-10T12:11:43.662Z,5.19
2018-02-10T12:14:14.595Z,5.24
2018-02-10T12:16:45.551Z,5.28
2018-02-10T12:19:16.489Z,5.38
2018-02-10T12:21:47.769Z,5.45
2018-02-10T12:24:18.670Z,5.59
2018-02-10T12:26:49.659Z,5.61
2018-02-10T12:29:20.656Z,5.63
2018-02-10T12:31:51.244Z,5.69
2018-02-10T12:34:22.441Z,5.73
2018-02-10T12:36:53.907Z,5.76
2018-02-10T12:39:25.047Z,5.73
2018-02-10T12:41:55.773Z,5.67
2018-02-10T12:44:27.305Z,5.59
2018-02-10T12:46:58.024Z,5.37
2018-02-10T12:49:33.346Z,5.21
2018-02-10T12:52:02.545Z,4.92
2018-02-10T12:54:31.834Z,4.79
2018-02-10T12:57:04.258Z,4.67
2018-02-10T12:59:33.463Z,4.48
2018-02-10T13:02:03.245Z,4.46
2018-02-10T13:04:34.706Z,4.32
2018-02-10T13:07:05.285Z,4.19
2018-02-10T13:09:35.771Z,4.15
2018-02-10T13:12:06.692Z,4.00
2018-02-10T13:14:37.205Z,3.88
2018-02-10T13:17:07.820Z,3.82
2018-02-10T13:19:38.639Z,3.75
2018-02-10T13:22:10.040Z,3.66
2018-02-10T13:24:42.315Z,3.71
2018-02-10T13:27:12.256Z,3.68
2018-02-10T13:29:43.610Z,3.67
2018-02-10T13:32:14.458Z,3.61
2018-02-10T13:34:45.166Z,3.56
2018-02-10T13:37:15.527Z,3.61
2018-02-10T13:39:45.903Z,3.53
2018-02-10T13:42:16.977Z,3.63
2018-02-10T13:44:48.126Z,3.57
2018-02-10T13:47:19.536Z,3.53
2018-02-10T13:49:49.158Z,3.57
2018-02-10T13:52:20.036Z,3.53
2018-02-10T13:54:49.130Z,3.52
2018-02-10T13:57:20.228Z,3.51
2018-02-10T13:59:51.189Z,3.38
2018-02-10T14:02:22.806Z,3.36
2018-02-10T14:04:53.311Z,3.36
2018-02-10T14:07:24.751Z,3.34
2018-02-10T14:09:55.600Z,3.37
2018-02-10T14:12:25.877Z,3.37
2018-02-10T14:14:55.997Z,3.39
2018-02-10T14:17:27.146Z,3.37
2018-02-10T14:19:57.996Z,3.34
2018-02-10T14:22:27.101Z,3.33
2018-02-10T14:24:58.620Z,3.31
2018-02-10T14:27:29.819Z,3.28
2018-02-10T14:30:00.620Z,3.26
2018-02-10T14:32:32.043Z,3.26
2018-02-10T14:35:03.447Z,3.26
2018-02-10T14:37:34.310Z,3.27
2018-02-10T14:40:04.809Z,3.29
2018-02-10T14:42:35.777Z,3.29
2018-02-10T14:45:07.295Z,3.28
2018-02-10T14:47:37.701Z,3.28
2018-02-10T14:50:07.734Z,3.30
2018-02-10T14:52:38.759Z,3.29
2018-02-10T14:55:09.706Z,3.29
2018-02-10T14:57:42.013Z,3.30
2018-02-10T15:00:13.922Z,3.28
2018-02-10T15:02:44.751Z,3.29
2018-02-10T15:05:15.655Z,3.28
2018-02-10T15:07:47.502Z,3.26
2018-02-10T15:10:19.406Z,3.23
2018-02-10T15:12:50.174Z,3.21
2018-02-10T15:15:20.517Z,3.23
2018-02-10T15:17:49.993Z,3.26
2018-02-10T15:20:21.764Z,3.13
2018-02-10T15:22:52.735Z,3.01
2018-02-10T15:25:23.495Z,2.88
2018-02-10T15:27:52.683Z,2.85
2018-02-10T15:30:33.880Z,2.85
2018-02-10T15:33:13.786Z,2.82
2018-02-10T15:35:42.573Z,2.80
2018-02-10T15:38:11.931Z,2.79
2018-02-10T15:40:41.089Z,2.76
2018-02-10T15:43:10.185Z,2.70
2018-02-10T15:45:39.299Z,2.71
2018-02-10T15:48:08.559Z,2.66
2018-02-10T15:50:38.014Z,2.68
2018-02-10T15:53:07.337Z,2.63
2018-02-10T15:55:37.319Z,2.60
2018-02-10T15:58:07.128Z,2.56
2018-02-10T16:00:38.067Z,2.52
2018-02-10T16:03:08.997Z,2.42
2018-02-10T16:05:39.828Z,2.38
2018-02-10T16:08:11.371Z,2.43
2018-02-10T16:10:41.947Z,2.37
2018-02-10T16:13:12.767Z,2.28
2018-02-10T16:15:43.255Z,2.24
2018-02-10T16:18:13.252Z,2.18
2018-02-10T16:20:44.795Z,2.17
2018-02-10T16:23:15.788Z,2.12
2018-02-10T16:25:46.795Z,2.07
2018-02-10T16:28:17.240Z,2.00
2018-02-10T16:30:48.727Z,1.95
2018-02-10T16:33:19.851Z,1.91
2018-02-10T16:35:55.088Z,1.91
2018-02-10T16:38:35.107Z,1.86
2018-02-10T16:41:04.284Z,1.78
2018-02-10T16:43:33.356Z,1.66
2018-02-10T16:46:02.798Z,1.61
2018-02-10T16:48:32.043Z,1.56
2018-02-10T16:51:01.673Z,1.54
2018-02-10T16:53:30.788Z,1.52
2018-02-10T16:55:59.987Z,1.51
2018-02-10T16:58:29.264Z,1.47
2018-02-10T17:01:00.354Z,1.45
2018-02-10T17:03:30.797Z,1.40
2018-02-10T17:06:01.747Z,1.34
2018-02-10T17:08:33.095Z,1.33
2018-02-10T17:11:04.807Z,1.33
2018-02-10T17:13:34.416Z,1.35
2018-02-10T17:16:05.264Z,1.35
2018-02-10T17:18:34.730Z,1.31
2018-02-10T17:21:05.790Z,1.26
2018-02-10T17:23:37.113Z,1.24
2018-02-10T17:26:07.498Z,1.44
2018-02-10T17:28:37.916Z,1.38
2018-02-10T17:31:07.030Z,1.30
2018-02-10T17:33:41.006Z,1.26
2018-02-10T17:36:11.956Z,1.20
2018-02-10T17:38:43.392Z,1.13
2018-02-10T17:41:13.283Z,1.10
2018-02-10T17:43:44.798Z,1.05
2018-02-10T17:46:14.953Z,1.03
2018-02-10T17:48:46.463Z,1.00
2018-02-10T17:51:16.799Z,0.95
2018-02-10T17:53:47.764Z,0.98
2018-02-10T17:56:21.693Z,0.96
2018-02-10T17:58:51.675Z,0.91
2018-02-10T18:01:21.665Z,0.85
2018-02-10T18:03:52.295Z,0.82
2018-02-10T18:06:23.855Z,0.82
2018-02-10T18:08:56.620Z,0.85
2018-02-10T18:11:28.223Z,0.89
2018-02-10T18:13:57.817Z,0.89
2018-02-10T18:16:27.176Z,0.87
2018-02-10T18:18:57.021Z,0.72
2018-02-10T18:21:27.929Z,0.63
2018-02-10T18:23:59.524Z,0.55
2018-02-10T18:26:30.103Z,0.50
2018-02-10T18:29:00.767Z,0.48
2018-02-10T18:31:31.813Z,0.46
2018-02-10T18:34:02.319Z,0.44
2018-02-10T18:36:33.034Z,0.45
2018-02-10T18:39:07.159Z,0.48
2018-02-10T18:41:40.356Z,0.51
2018-02-10T18:44:09.486Z,0.50
2018-02-10T18:46:38.698Z,0.44
2018-02-10T18:49:07.869Z,0.34
2018-02-10T18:51:38.708Z,0.29
2018-02-10T18:54:09.167Z,0.18
2018-02-10T18:56:39.868Z,0.20
2018-02-10T18:59:11.312Z,0.23
2018-02-10T19:01:41.992Z,0.22
2018-02-10T19:04:12.814Z,0.23
2018-02-10T19:06:43.393Z,0.24
2018-02-10T19:09:14.409Z,0.23
2018-02-10T19:11:44.920Z,0.22
2018-02-10T19:14:15.824Z,0.23
2018-02-10T19:16:46.767Z,0.24
2018-02-10T19:19:17.662Z,0.25
2018-02-10T19:21:48.565Z,0.27
2018-02-10T19:24:20.068Z,0.27
2018-02-10T19:26:51.386Z,0.29
2018-02-10T19:29:21.112Z,0.23
2018-02-10T19:31:51.822Z,0.27
2018-02-10T19:34:22.758Z,0.27
2018-02-10T19:36:54.269Z,0.32
2018-02-10T19:39:24.801Z,0.29
2018-02-10T19:41:55.815Z,0.30
2018-02-10T19:44:27.330Z,0.31
2018-02-10T19:46:57.827Z,0.32
2018-02-10T19:49:28.677Z,0.33
2018-02-10T19:52:00.411Z,0.31
2018-02-10T19:54:30.809Z,0.35
2018-02-10T19:57:02.096Z,0.42
2018-02-10T19:59:32.464Z,0.36
2018-02-10T20:02:03.063Z,0.37
2018-02-10T20:04:34.487Z,0.40
2018-02-10T20:07:04.121Z,0.42
2018-02-10T20:09:34.784Z,0.43
2018-02-10T20:12:05.751Z,0.45
2018-02-10T20:14:36.624Z,0.46
2018-02-10T20:17:07.558Z,0.50
2018-02-10T20:19:39.208Z,0.49
2018-02-10T20:22:09.512Z,0.42
2018-02-10T20:24:40.095Z,0.41
2018-02-10T20:27:10.935Z,0.42
2018-02-10T20:29:42.053Z,0.39
2018-02-10T20:32:12.727Z,0.42
2018-02-10T20:34:44.638Z,0.36
2018-02-10T20:37:15.181Z,0.24
2018-02-10T20:39:46.063Z,0.20
2018-02-10T20:42:16.763Z,0.26
2018-02-10T20:44:48.031Z,0.35
2018-02-10T20:47:18.982Z,0.32
2018-02-10T20:49:49.875Z,0.30
2018-02-10T20:52:21.132Z,0.23
2018-02-10T20:54:52.732Z,0.17
2018-02-10T20:57:23.279Z,0.18
2018-02-10T20:59:53.982Z,0.19
2018-02-10T21:02:24.855Z,0.21
2018-02-10T21:04:55.996Z,0.25
2018-02-10T21:07:26.388Z,0.33
2018-02-10T21:09:57.745Z,0.39
2018-02-10T21:12:28.740Z,0.39
2018-02-10T21:14:59.463Z,0.41
2018-02-10T21:17:29.828Z,0.38
2018-02-10T21:20:01.106Z,0.36
2018-02-10T21:22:31.756Z,0.40
2018-02-10T21:25:02.800Z,0.37
2018-02-10T21:27:33.771Z,0.42
2018-02-10T21:30:06.762Z,0.42
2018-02-10T21:32:36.576Z,0.42
2018-02-10T21:35:07.598Z,0.36
2018-02-10T21:37:38.227Z,0.40
2018-02-10T21:40:08.794Z,0.52
2018-02-10T21:42:40.121Z,0.46
2018-02-10T21:45:09.465Z,0.46
2018-02-10T21:47:39.946Z,0.49
2018-02-10T21:50:12.668Z,0.53
2018-02-10T21:52:41.792Z,0.48
2018-02-10T21:55:12.420Z,0.52
2018-02-10T21:57:42.810Z,0.43
2018-02-10T22:00:14.284Z,0.40
2018-02-10T22:02:44.899Z,0.40
2018-02-10T22:05:15.868Z,0.44
2018-02-10T22:07:46.368Z,0.45
2018-02-10T22:10:18.174Z,0.34
2018-02-10T22:12:50.028Z,0.30
2018-02-10T22:15:21.536Z,0.31
2018-02-10T22:17:51.481Z,0.29
2018-02-10T22:20:23.228Z,0.28
2018-02-10T22:22:54.275Z,0.28
2018-02-10T22:25:25.575Z,0.24
2018-02-10T22:27:57.693Z,0.30
2018-02-10T22:30:27.702Z,0.28
2018-02-10T22:32:57.523Z,0.28
2018-02-10T22:35:29.195Z,0.33
2018-02-10T22:37:59.460Z,0.44
2018-02-10T22:40:30.811Z,0.43
2018-02-10T22:43:01.613Z,0.44
2018-02-10T22:45:32.256Z,0.46
2018-02-10T22:48:02.728Z,0.43
2018-02-10T22:50:33.847Z,0.46
2018-02-10T22:53:04.412Z,0.47
2018-02-10T22:55:34.881Z,0.47
2018-02-10T22:58:05.703Z,0.48
2018-02-10T23:00:37.227Z,0.48
2018-02-10T23:03:07.838Z,0.54
2018-02-10T23:05:38.532Z,0.57
2018-02-10T23:08:08.931Z,0.60
2018-02-10T23:10:40.440Z,0.60
2018-02-10T23:13:10.775Z,0.62
2018-02-10T23:15:41.690Z,0.59
2018-02-10T23:18:12.535Z,0.64
2018-02-10T23:20:43.497Z,0.74
2018-02-10T23:23:13.804Z,0.76
2018-02-10T23:25:44.521Z,0.77
2018-02-10T23:28:15.117Z,0.76
2018-02-10T23:30:46.485Z,0.71
2018-02-10T23:33:17.144Z,0.75
2018-02-10T23:35:45.979Z,0.77
2018-02-10T23:38:16.980Z,0.67
2018-02-10T23:40:47.714Z,0.63
2018-02-10T23:43:18.846Z,0.70
2018-02-10T23:45:50.232Z,0.67
2018-02-10T23:48:20.702Z,0.65
2018-02-10T23:50:51.684Z,0.63
2018-02-10T23:53:23.607Z,0.66
2018-02-10T23:55:54.363Z,0.69
2018-02-10T23:58:25.551Z,0.72
